Time;durP1;ratioP1;P1;durP2;ratioP2;P2;SDS_P1;SDS_P2;PMS_P1;PMS_P2;Temp;Humidity;BMP_temperature;BMP_pressure;BME280_temperature;BME280_humidity;BME280_pressure;Samples;Min_cycle;Max_cycle;Signal;HPM_P1;HPM_P2
2023/12/16 00:01:54;;;;;;;;;;;;;;;4.16;96.36;95870.09;5115875;28;994;-60
2023/12/16 00:04:20;;;;;;;;;;;;;;;4.14;97.72;95879.94;5116205;28;996;-60
2023/12/16 00:06:46;;;;;;;;;;;;;;;4.18;95.67;95880.59;5115618;28;1069;-60
2023/12/16 00:09:12;;;;;;;;;;;;;;;4.18;94.59;95885.88;5115856;28;1041;-60
2023/12/16 00:11:38;;;;;;;;;;;;;;;4.19;96.08;95891.09;5115315;28;1988;-60
2023/12/16 00:14:04;;;;;;;;;;;;;;;4.15;96.89;95891.38;5115785;28;1063;-60
2023/12/16 00:16:30;;;;;;;;;;;;;;;4.02;98.43;95891.34;5115707;28;1083;-60
2023/12/16 00:18:56;;;;;;;;;;;;;;;4.08;97.53;95906.84;5115552;28;937;-60
2023/12/16 00:21:22;;;;;;;;;;;;;;;4.20;95.42;95879.53;5115226;28;1047;-60
2023/12/16 00:23:48;;;;;;;;;;;;;;;4.13;96.59;95895.94;5115571;28;989;-61
2023/12/16 00:26:14;;;;;;;;;;;;;;;3.98;98.75;95909.22;5115491;28;1067;-60
2023/12/16 00:28:40;;;;;;;;;;;;;;;4.03;98.55;95901.84;5115439;28;1003;-60
2023/12/16 00:31:06;;;;;;;;;;;;;;;4.05;98.81;95899.09;5115473;28;1929;-60
2023/12/16 00:33:32;;;;;;;;;;;;;;;4.01;98.90;95903.75;5114440;28;968;-60
2023/12/16 00:35:58;;;;;;;;;;;;;;;3.98;98.46;95897.81;5114806;28;1028;-60
2023/12/16 00:38:25;;;;;;;;;;;;;;;3.98;98.29;95913.69;5115199;28;1060;-61
2023/12/16 00:40:51;;;;;;;;;;;;;;;3.96;97.05;95916.41;5115286;28;988;-60
2023/12/16 00:43:16;;;;;;;;;;;;;;;3.82;99.37;95921.78;5115198;28;1056;-61
2023/12/16 00:45:42;;;;;;;;;;;;;;;3.91;98.35;95923.84;5115219;28;974;-60
2023/12/16 00:48:08;;;;;;;;;;;;;;;3.86;99.21;95918.00;5096902;28;990;-60
2023/12/16 00:50:38;;;;;;;;;;;;;;;3.97;97.87;95925.22;5114815;28;1905;-60
2023/12/16 00:53:04;;;;;;;;;;;;;;;4.03;96.90;95923.00;5115050;28;966;-60
2023/12/16 00:55:30;;;;;;;;;;;;;;;3.93;97.34;95932.50;5130449;27;1174;-60
2023/12/16 00:57:56;;;;;;;;;;;;;;;3.96;97.18;95928.81;5135548;27;1055;-60
2023/12/16 01:00:22;;;;;;;;;;;;;;;3.89;97.24;95923.09;5135056;27;980;-60
2023/12/16 01:02:48;;;;;;;;;;;;;;;3.75;98.37;95933.72;5135605;27;992;-60
2023/12/16 01:05:14;;;;;;;;;;;;;;;3.74;97.84;95938.16;5135275;27;1281;-60
2023/12/16 01:07:40;;;;;;;;;;;;;;;3.78;97.68;95925.59;5135041;27;1079;-60
2023/12/16 01:10:06;;;;;;;;;;;;;;;3.76;97.44;95940.72;5134881;27;1990;-60
2023/12/16 01:12:32;;;;;;;;;;;;;;;3.70;97.72;95937.50;5134790;27;1225;-60
2023/12/16 01:14:58;;;;;;;;;;;;;;;3.63;97.14;95941.50;5134864;27;1111;-60
2023/12/16 01:17:24;;;;;;;;;;;;;;;3.61;99.13;95938.09;5134805;27;1028;-60
2023/12/16 01:19:49;;;;;;;;;;;;;;;3.65;98.12;95936.97;5134744;27;1083;-60
2023/12/16 01:22:15;;;;;;;;;;;;;;;3.71;98.25;95941.00;5134682;27;1099;-61
2023/12/16 01:24:41;;;;;;;;;;;;;;;3.79;97.78;95945.78;5134945;27;1023;-61
2023/12/16 01:27:07;;;;;;;;;;;;;;;3.74;98.14;95942.59;5134588;27;1745;-61
2023/12/16 01:29:33;;;;;;;;;;;;;;;3.56;99.56;95937.53;5134547;27;1020;-60
2023/12/16 01:31:59;;;;;;;;;;;;;;;3.54;99.14;95944.72;5134575;27;1978;-60
2023/12/16 01:34:25;;;;;;;;;;;;;;;3.48;99.36;95942.50;5134728;27;988;-60
2023/12/16 01:36:51;;;;;;;;;;;;;;;3.49;100.00;95944.16;5134756;27;972;-60
2023/12/16 01:39:17;;;;;;;;;;;;;;;3.65;98.55;95946.69;5134388;27;1037;-60
2023/12/16 01:41:43;;;;;;;;;;;;;;;3.71;97.75;95939.19;5134750;27;1008;-61
2023/12/16 01:44:09;;;;;;;;;;;;;;;3.64;97.90;95953.78;5134560;27;988;-60
2023/12/16 01:46:35;;;;;;;;;;;;;;;3.58;98.14;95945.38;5134379;27;1075;-60
2023/12/16 01:49:01;;;;;;;;;;;;;;;3.67;97.66;95953.56;5134523;27;979;-61
2023/12/16 01:51:27;;;;;;;;;;;;;;;3.58;98.12;95953.31;5134403;27;2004;-60
2023/12/16 01:53:53;;;;;;;;;;;;;;;3.46;99.13;95960.25;5132495;27;1220;-60
2023/12/16 01:56:21;;;;;;;;;;;;;;;3.43;99.76;95965.72;5113628;28;1040;-60
2023/12/16 01:58:49;;;;;;;;;;;;;;;3.45;99.57;95966.47;5113620;28;1091;-60
2023/12/16 02:01:15;;;;;;;;;;;;;;;3.37;99.42;95966.13;5113872;28;1056;-60
2023/12/16 02:03:42;;;;;;;;;;;;;;;3.35;99.35;95974.13;5113544;28;1106;-59
2023/12/16 02:06:08;;;;;;;;;;;;;;;3.41;99.09;95973.75;5113807;28;965;-60
2023/12/16 02:08:34;;;;;;;;;;;;;;;3.43;99.41;95974.50;5113775;28;1023;-59
2023/12/16 02:11:00;;;;;;;;;;;;;;;3.42;99.47;95970.16;5111753;28;1910;-60
2023/12/16 02:13:26;;;;;;;;;;;;;;;3.43;99.19;95978.94;5093209;28;1068;-60
2023/12/16 02:15:52;;;;;;;;;;;;;;;3.59;98.67;95984.97;5093197;28;980;-59
2023/12/16 02:18:18;;;;;;;;;;;;;;;3.57;97.83;95978.94;5093264;28;1024;-60
2023/12/16 02:20:46;;;;;;;;;;;;;;;3.58;98.15;95982.41;5093400;28;1041;-60
2023/12/16 02:23:16;;;;;;;;;;;;;;;3.62;97.83;95997.13;5093264;28;1068;-59
2023/12/16 02:25:42;;;;;;;;;;;;;;;3.51;99.09;96001.31;5093337;28;1333;-60
2023/12/16 02:28:09;;;;;;;;;;;;;;;3.44;99.38;96001.81;5093156;28;965;-60
2023/12/16 02:30:35;;;;;;;;;;;;;;;3.42;100.00;96003.69;5092951;28;2055;-61
2023/12/16 02:33:01;;;;;;;;;;;;;;;3.43;99.88;95997.44;5092990;28;965;-61
2023/12/16 02:35:27;;;;;;;;;;;;;;;3.42;100.00;96007.19;5093135;28;1036;-60
2023/12/16 02:37:53;;;;;;;;;;;;;;;3.46;99.89;96011.31;5093205;28;980;-61
2023/12/16 02:40:19;;;;;;;;;;;;;;;3.38;100.00;96010.97;5092802;28;1032;-61
2023/12/16 02:42:45;;;;;;;;;;;;;;;3.37;100.00;96009.25;5092865;28;1087;-60
2023/12/16 02:45:11;;;;;;;;;;;;;;;3.48;99.87;96011.25;5092870;28;1063;-61
2023/12/16 02:47:37;;;;;;;;;;;;;;;3.44;100.00;96007.09;5093040;28;1000;-61
2023/12/16 02:50:07;;;;;;;;;;;;;;;3.36;99.61;96022.56;5093014;28;1910;-61
2023/12/16 02:52:33;;;;;;;;;;;;;;;3.35;99.77;96032.28;5092961;28;1024;-61
2023/12/16 02:54:59;;;;;;;;;;;;;;;3.35;99.65;96032.28;5103791;28;1206;-61
2023/12/16 02:57:25;;;;;;;;;;;;;;;3.33;100.00;96042.13;5114134;28;1021;-61
2023/12/16 02:59:51;;;;;;;;;;;;;;;3.33;100.00;96055.34;5116941;28;1260;-61
2023/12/16 03:02:17;;;;;;;;;;;;;;;3.21;100.00;96058.75;5098911;28;1032;-61
2023/12/16 03:04:43;;;;;;;;;;;;;;;3.21;100.00;96056.94;5116869;28;1083;-60
2023/12/16 03:07:10;;;;;;;;;;;;;;;3.13;100.00;96046.00;5116811;28;1076;-61
2023/12/16 03:09:36;;;;;;;;;;;;;;;3.10;100.00;96048.81;5116944;28;1049;-61
2023/12/16 03:12:03;;;;;;;;;;;;;;;3.23;100.00;96059.50;5127250;27;1993;-61
2023/12/16 03:14:29;;;;;;;;;;;;;;;3.22;100.00;96061.28;5137214;27;1047;-61
2023/12/16 03:16:57;;;;;;;;;;;;;;;3.24;100.00;96062.03;5137136;27;1028;-61
2023/12/16 03:19:23;;;;;;;;;;;;;;;3.23;100.00;96060.34;5119110;27;1052;-61
2023/12/16 03:21:49;;;;;;;;;;;;;;;3.23;99.31;96070.06;5137082;27;1032;-61
2023/12/16 03:24:14;;;;;;;;;;;;;;;3.15;100.00;96067.91;5136977;27;1020;-60
2023/12/16 03:26:40;;;;;;;;;;;;;;;3.03;100.00;96073.91;5137008;27;1086;-60
2023/12/16 03:29:06;;;;;;;;;;;;;;;3.10;100.00;96073.44;5137293;27;1047;-60
2023/12/16 03:31:32;;;;;;;;;;;;;;;3.08;100.00;96080.63;5136668;27;1978;-61
2023/12/16 03:33:58;;;;;;;;;;;;;;;3.11;100.00;96074.28;5136917;27;1036;-61
2023/12/16 03:36:24;;;;;;;;;;;;;;;3.14;100.00;96074.13;5136961;27;983;-61
2023/12/16 03:38:51;;;;;;;;;;;;;;;3.19;99.88;96077.34;5136986;27;1132;-61
2023/12/16 03:41:17;;;;;;;;;;;;;;;3.15;99.07;96078.47;5136791;27;999;-60
2023/12/16 03:43:43;;;;;;;;;;;;;;;3.08;100.00;96095.63;5136990;27;959;-61
2023/12/16 03:46:09;;;;;;;;;;;;;;;3.06;100.00;96087.78;5136609;27;1036;-61
2023/12/16 03:48:35;;;;;;;;;;;;;;;3.08;100.00;96082.41;5136876;27;1036;-61
2023/12/16 03:51:01;;;;;;;;;;;;;;;3.12;99.93;96076.00;5136457;27;1990;-60
2023/12/16 03:53:27;;;;;;;;;;;;;;;3.12;99.30;96092.69;5136589;27;1048;-61
2023/12/16 03:55:53;;;;;;;;;;;;;;;3.11;99.57;96092.78;5117565;27;1161;-61
2023/12/16 03:58:19;;;;;;;;;;;;;;;3.22;98.80;96098.28;5116040;28;1023;-61
2023/12/16 04:00:45;;;;;;;;;;;;;;;3.28;97.79;96092.66;5115743;28;1052;-61
2023/12/16 04:03:11;;;;;;;;;;;;;;;3.21;97.34;96101.03;5115865;28;973;-61
2023/12/16 04:05:37;;;;;;;;;;;;;;;3.06;99.99;96100.16;5116037;28;981;-60
2023/12/16 04:08:03;;;;;;;;;;;;;;;3.10;98.66;96104.31;5115501;28;1041;-60
2023/12/16 04:10:29;;;;;;;;;;;;;;;3.08;98.58;96104.41;5097376;28;1992;-60
2023/12/16 04:12:55;;;;;;;;;;;;;;;3.07;98.74;96105.38;5097326;28;1088;-62
2023/12/16 04:15:21;;;;;;;;;;;;;;;3.14;97.58;96111.13;5095292;28;958;-60
2023/12/16 04:17:47;;;;;;;;;;;;;;;3.26;97.66;96107.75;5095356;28;1199;-60
2023/12/16 04:20:13;;;;;;;;;;;;;;;3.26;97.74;96109.50;5095176;28;1041;-61
2023/12/16 04:22:39;;;;;;;;;;;;;;;3.25;96.72;96111.31;5095283;28;969;-62
2023/12/16 04:25:10;;;;;;;;;;;;;;;3.27;95.31;96112.06;5095075;28;1056;-61
2023/12/16 04:27:36;;;;;;;;;;;;;;;3.31;95.99;96116.22;5095210;28;1064;-60
2023/12/16 04:30:06;;;;;;;;;;;;;;;3.33;94.56;96124.91;5094711;28;1996;-60
2023/12/16 04:32:32;;;;;;;;;;;;;;;3.30;96.00;96118.97;5077034;28;1064;-61
2023/12/16 04:34:58;;;;;;;;;;;;;;;3.30;95.95;96138.34;5095084;28;1052;-62
2023/12/16 04:37:24;;;;;;;;;;;;;;;3.25;96.08;96139.56;5094816;28;1049;-61
2023/12/16 04:39:50;;;;;;;;;;;;;;;3.29;96.86;96147.19;5094758;28;1218;-60
2023/12/16 04:42:16;;;;;;;;;;;;;;;3.36;96.65;96145.03;5094637;28;965;-61
2023/12/16 04:44:41;;;;;;;;;;;;;;;3.36;96.00;96121.25;5094573;28;1107;-61
2023/12/16 04:47:07;;;;;;;;;;;;;;;3.25;95.56;96140.41;5094552;28;1107;-61
2023/12/16 04:49:34;;;;;;;;;;;;;;;3.25;96.64;96143.03;5094739;28;1019;-61
2023/12/16 04:52:00;;;;;;;;;;;;;;;3.30;96.17;96156.84;5094363;28;1988;-60
2023/12/16 04:54:28;;;;;;;;;;;;;;;3.32;95.71;96165.53;5100850;28;1173;-61
2023/12/16 04:56:54;;;;;;;;;;;;;;;3.43;94.65;96162.22;5114822;28;1016;-61
2023/12/16 04:59:20;;;;;;;;;;;;;;;3.42;95.00;96159.69;5114539;28;1107;-62
2023/12/16 05:01:46;;;;;;;;;;;;;;;3.39;94.92;96168.63;5114635;28;1068;-61
2023/12/16 05:04:12;;;;;;;;;;;;;;;3.36;95.09;96170.59;5114492;28;1013;-61
2023/12/16 05:06:37;;;;;;;;;;;;;;;3.27;95.26;96175.50;5114734;28;982;-61
2023/12/16 05:09:10;;;;;;;;;;;;;;;3.31;93.40;96189.41;5114627;28;1015;-61
2023/12/16 05:11:36;;;;;;;;;;;;;;;3.36;94.18;96186.47;5121094;27;1988;-62
2023/12/16 05:14:01;;;;;;;;;;;;;;;3.36;96.07;96187.34;5134846;27;1048;-60
2023/12/16 05:16:28;;;;;;;;;;;;;;;3.46;93.24;96185.84;5135122;27;1039;-60
2023/12/16 05:18:54;;;;;;;;;;;;;;;3.48;93.17;96188.41;5135109;27;1047;-61
2023/12/16 05:21:20;;;;;;;;;;;;;;;3.50;91.85;96182.06;5134168;27;1052;-61
2023/12/16 05:23:46;;;;;;;;;;;;;;;3.40;92.14;96199.44;5134761;27;1071;-61
2023/12/16 05:26:12;;;;;;;;;;;;;;;3.32;92.72;96181.38;5134939;27;1071;-63
2023/12/16 05:28:38;;;;;;;;;;;;;;;3.41;93.00;96182.59;5134638;27;1040;-61
2023/12/16 05:31:04;;;;;;;;;;;;;;;3.41;92.64;96194.97;5134588;27;1906;-62
2023/12/16 05:33:30;;;;;;;;;;;;;;;3.55;90.17;96186.22;5134603;27;1032;-62
2023/12/16 05:35:56;;;;;;;;;;;;;;;3.43;89.60;96191.28;5134530;27;1070;-62
2023/12/16 05:38:22;;;;;;;;;;;;;;;3.48;89.20;96197.16;5134425;27;968;-62
2023/12/16 05:40:48;;;;;;;;;;;;;;;3.41;90.66;96202.91;5134607;27;1007;-63
2023/12/16 05:43:14;;;;;;;;;;;;;;;3.38;90.84;96193.38;5134598;27;1051;-61
2023/12/16 05:45:40;;;;;;;;;;;;;;;3.35;90.59;96195.34;5134696;27;968;-61
2023/12/16 05:48:06;;;;;;;;;;;;;;;3.37;91.11;96194.31;5134650;27;1007;-62
2023/12/16 05:50:32;;;;;;;;;;;;;;;3.26;90.77;96208.19;5134417;27;1909;-62
2023/12/16 05:52:58;;;;;;;;;;;;;;;3.42;90.68;96217.84;5134407;27;964;-60
2023/12/16 05:55:23;;;;;;;;;;;;;;;3.43;91.05;96230.13;5119532;27;1145;-60
2023/12/16 05:57:49;;;;;;;;;;;;;;;3.37;91.17;96220.75;5113904;28;961;-60
2023/12/16 06:00:15;;;;;;;;;;;;;;;3.47;89.34;96226.34;5095796;28;1306;-61
2023/12/16 06:02:41;;;;;;;;;;;;;;;3.37;89.14;96215.47;5113803;28;977;-62
2023/12/16 06:05:07;;;;;;;;;;;;;;;3.38;90.88;96230.41;5113632;28;1068;-62
2023/12/16 06:07:33;;;;;;;;;;;;;;;3.44;90.18;96237.13;5113814;28;1056;-61
2023/12/16 06:09:59;;;;;;;;;;;;;;;3.44;89.84;96232.69;5113573;28;1072;-61
2023/12/16 06:12:26;;;;;;;;;;;;;;;3.43;89.94;96244.19;5099494;28;1913;-61
2023/12/16 06:14:52;;;;;;;;;;;;;;;3.39;89.84;96249.75;5093417;28;1023;-61
2023/12/16 06:17:18;;;;;;;;;;;;;;;3.30;91.00;96249.34;5093074;28;1071;-62
2023/12/16 06:19:43;;;;;;;;;;;;;;;3.44;89.08;96250.34;5093142;28;1036;-62
2023/12/16 06:22:09;;;;;;;;;;;;;;;3.32;89.29;96250.13;5093155;28;1091;-60
2023/12/16 06:24:35;;;;;;;;;;;;;;;3.25;89.51;96262.00;5075296;28;1031;-62
2023/12/16 06:27:02;;;;;;;;;;;;;;;3.31;88.59;96253.69;5093083;28;1035;-62
2023/12/16 06:29:28;;;;;;;;;;;;;;;3.33;86.53;96266.81;5093255;28;999;-62
2023/12/16 06:31:54;;;;;;;;;;;;;;;3.35;88.31;96274.66;5093349;28;1909;-63
2023/12/16 06:34:21;;;;;;;;;;;;;;;3.35;88.33;96287.88;5097391;28;1016;-64
2023/12/16 06:36:47;;;;;;;;;;;;;;;3.36;88.72;96292.22;5097054;28;1073;-63
2023/12/16 06:39:12;;;;;;;;;;;;;;;3.42;88.10;96299.81;5097259;28;1008;-62
2023/12/16 06:41:38;;;;;;;;;;;;;;;3.38;88.02;96299.13;5079028;28;1041;-61
2023/12/16 06:44:04;;;;;;;;;;;;;;;3.42;88.05;96299.81;5097181;28;980;-62
2023/12/16 06:46:30;;;;;;;;;;;;;;;3.47;87.12;96308.31;5097061;28;1117;-63
2023/12/16 06:48:57;;;;;;;;;;;;;;;3.44;86.75;96306.72;5096888;28;1108;-62
2023/12/16 06:51:23;;;;;;;;;;;;;;;3.41;88.10;96306.88;5096736;28;1992;-63
2023/12/16 06:53:49;;;;;;;;;;;;;;;3.50;87.28;96303.69;5098280;28;1170;-62
2023/12/16 06:56:15;;;;;;;;;;;;;;;3.61;85.24;96311.03;5117301;28;974;-63
2023/12/16 06:58:43;;;;;;;;;;;;;;;3.53;85.35;96310.63;5098940;28;1103;-62
2023/12/16 07:01:10;;;;;;;;;;;;;;;3.45;86.66;96316.34;5117342;28;973;-62
2023/12/16 07:03:36;;;;;;;;;;;;;;;3.49;85.28;96330.22;5117103;28;1060;-62
2023/12/16 07:06:02;;;;;;;;;;;;;;;3.51;87.05;96331.03;5116909;28;1008;-62
2023/12/16 07:08:28;;;;;;;;;;;;;;;3.40;85.75;96331.63;5098999;28;958;-62
2023/12/16 07:10:54;;;;;;;;;;;;;;;3.36;85.51;96339.81;5117546;27;1930;-62
2023/12/16 07:13:20;;;;;;;;;;;;;;;3.31;85.54;96334.78;5137569;27;1035;-62
2023/12/16 07:15:46;;;;;;;;;;;;;;;3.40;86.60;96365.16;5119265;27;1036;-61
2023/12/16 07:18:12;;;;;;;;;;;;;;;3.40;86.36;96346.66;5137444;27;965;-62
2023/12/16 07:20:38;;;;;;;;;;;;;;;3.54;86.08;96353.78;5137554;27;961;-63
2023/12/16 07:23:04;;;;;;;;;;;;;;;3.49;86.07;96352.25;5137242;27;1019;-62
2023/12/16 07:25:31;;;;;;;;;;;;;;;3.59;85.50;96357.88;5137017;27;1032;-62
2023/12/16 07:27:57;;;;;;;;;;;;;;;3.75;85.42;96362.25;5137058;27;977;-61
2023/12/16 07:30:22;;;;;;;;;;;;;;;3.62;85.15;96362.13;5137153;27;1988;-61
2023/12/16 07:32:48;;;;;;;;;;;;;;;3.57;86.33;96369.47;5137149;27;1003;-61
2023/12/16 07:35:15;;;;;;;;;;;;;;;3.74;84.90;96371.13;5118992;27;1005;-62
2023/12/16 07:37:41;;;;;;;;;;;;;;;3.61;85.73;96369.22;5137256;27;1031;-62
2023/12/16 07:40:10;;;;;;;;;;;;;;;3.51;86.45;96375.97;5137157;27;964;-61
2023/12/16 07:42:37;;;;;;;;;;;;;;;3.53;86.07;96384.66;5136454;27;1023;-61
2023/12/16 07:45:04;;;;;;;;;;;;;;;3.57;85.90;96390.66;5136952;27;1027;-60
2023/12/16 07:47:33;;;;;;;;;;;;;;;3.65;84.80;96391.03;5136778;27;1023;-59
2023/12/16 07:49:59;;;;;;;;;;;;;;;3.70;84.09;96394.28;5136786;27;1273;-60
2023/12/16 07:52:26;;;;;;;;;;;;;;;3.74;85.35;96394.94;5136501;27;1901;-61
2023/12/16 07:54:52;;;;;;;;;;;;;;;3.77;84.95;96397.41;5126327;27;1216;-61
2023/12/16 07:57:18;;;;;;;;;;;;;;;3.76;85.27;96403.66;5116133;28;1136;-60
2023/12/16 07:59:44;;;;;;;;;;;;;;;3.74;85.75;96401.09;5116050;28;1015;-61
2023/12/16 08:02:10;;;;;;;;;;;;;;;3.85;85.34;96400.44;5115825;28;1107;-60
2023/12/16 08:04:38;;;;;;;;;;;;;;;3.88;85.10;96408.22;5116146;28;977;-61
2023/12/16 08:07:04;;;;;;;;;;;;;;;3.94;84.28;96415.81;5116053;28;1037;-61
2023/12/16 08:09:30;;;;;;;;;;;;;;;3.80;84.14;96419.25;5115652;28;1037;-61
2023/12/16 08:11:58;;;;;;;;;;;;;;;3.69;85.20;96417.22;5105780;28;1986;-61
2023/12/16 08:14:24;;;;;;;;;;;;;;;3.73;85.88;96415.25;5095163;28;1025;-61
2023/12/16 08:16:50;;;;;;;;;;;;;;;3.80;85.51;96418.41;5095523;28;984;-62
2023/12/16 08:19:16;;;;;;;;;;;;;;;3.89;84.59;96421.38;5095418;28;1036;-62
2023/12/16 08:21:43;;;;;;;;;;;;;;;3.89;85.63;96426.66;5077115;28;1041;-61
2023/12/16 08:24:09;;;;;;;;;;;;;;;3.99;83.98;96431.44;5095021;28;1041;-62
2023/12/16 08:26:35;;;;;;;;;;;;;;;3.84;85.55;96425.22;5094911;28;1060;-61
2023/12/16 08:29:01;;;;;;;;;;;;;;;3.77;85.37;96423.88;5094941;28;1029;-62
2023/12/16 08:31:27;;;;;;;;;;;;;;;3.69;86.41;96424.31;5094675;28;1910;-61
2023/12/16 08:33:53;;;;;;;;;;;;;;;3.82;84.85;96424.47;5094873;28;1028;-60
2023/12/16 08:36:19;;;;;;;;;;;;;;;3.81;84.49;96435.97;5095050;28;977;-60
2023/12/16 08:38:45;;;;;;;;;;;;;;;3.69;85.49;96443.66;5094735;28;1020;-60
2023/12/16 08:41:12;;;;;;;;;;;;;;;3.72;83.69;96435.56;5077053;28;1038;-61
2023/12/16 08:43:38;;;;;;;;;;;;;;;3.90;84.38;96438.09;5094871;28;1047;-61
2023/12/16 08:46:05;;;;;;;;;;;;;;;3.88;84.04;96437.34;5094768;28;1048;-60
2023/12/16 08:48:31;;;;;;;;;;;;;;;4.03;84.17;96431.16;5094440;28;1053;-60
2023/12/16 08:50:57;;;;;;;;;;;;;;;3.97;83.69;96431.50;5094361;28;1921;-59
2023/12/16 08:53:24;;;;;;;;;;;;;;;4.03;84.03;96431.16;5094364;28;1045;-60
2023/12/16 08:55:50;;;;;;;;;;;;;;;4.12;83.43;96437.72;5111677;28;1150;-60
2023/12/16 08:58:17;;;;;;;;;;;;;;;4.11;82.91;96434.19;5096896;28;1004;-61
2023/12/16 09:00:43;;;;;;;;;;;;;;;4.13;84.30;96436.75;5114708;28;1972;-61
2023/12/16 09:03:09;;;;;;;;;;;;;;;4.04;84.49;96427.56;5114746;28;1087;-60
2023/12/16 09:05:36;;;;;;;;;;;;;;;4.11;85.20;96439.47;5114803;28;979;-60
2023/12/16 09:08:02;;;;;;;;;;;;;;;4.19;85.31;96446.13;5114455;28;1076;-60
2023/12/16 09:10:29;;;;;;;;;;;;;;;4.35;84.72;96448.75;5114531;28;1930;-60
2023/12/16 09:12:55;;;;;;;;;;;;;;;4.33;83.40;96445.34;5132373;27;1215;-61
2023/12/16 09:15:21;;;;;;;;;;;;;;;4.23;83.55;96448.53;5135158;27;1018;-61
2023/12/16 09:17:47;;;;;;;;;;;;;;;4.19;85.73;96446.13;5134965;27;1032;-60
2023/12/16 09:20:13;;;;;;;;;;;;;;;4.30;85.35;96447.19;5134900;27;1051;-60
2023/12/16 09:22:39;;;;;;;;;;;;;;;4.29;84.12;96442.00;5134795;27;1063;-60
2023/12/16 09:25:06;;;;;;;;;;;;;;;4.09;85.40;96424.63;5135014;27;977;-61
2023/12/16 09:27:32;;;;;;;;;;;;;;;4.17;84.69;96424.19;5134666;27;1099;-60
2023/12/16 09:29:58;;;;;;;;;;;;;;;4.18;86.60;96424.09;5134760;27;1028;-60
2023/12/16 09:32:24;;;;;;;;;;;;;;;4.25;85.69;96422.81;5134885;27;1934;-60
2023/12/16 09:34:50;;;;;;;;;;;;;;;4.32;85.66;96428.56;5116609;27;960;-60
2023/12/16 09:37:16;;;;;;;;;;;;;;;4.33;83.51;96424.16;5134658;27;1031;-60
2023/12/16 09:39:43;;;;;;;;;;;;;;;4.33;82.98;96417.03;5134518;27;1056;-60
2023/12/16 09:42:10;;;;;;;;;;;;;;;4.32;84.26;96409.19;5134783;27;1031;-61
2023/12/16 09:44:37;;;;;;;;;;;;;;;4.39;82.98;96406.06;5134610;27;973;-60
2023/12/16 09:47:03;;;;;;;;;;;;;;;4.37;83.68;96405.31;5134475;27;1020;-61
2023/12/16 09:49:30;;;;;;;;;;;;;;;4.46;83.20;96418.00;5134337;27;1024;-60
2023/12/16 09:51:56;;;;;;;;;;;;;;;4.51;83.16;96415.06;5134322;27;2012;-60
2023/12/16 09:54:22;;;;;;;;;;;;;;;4.48;83.29;96423.22;5128374;27;1133;-59
2023/12/16 09:56:49;;;;;;;;;;;;;;;4.55;82.42;96427.19;5114051;28;1048;-61
2023/12/16 09:59:16;;;;;;;;;;;;;;;4.62;82.13;96447.06;5113515;28;1028;-62
2023/12/16 10:01:50;;;;;;;;;;;;;;;4.51;83.08;96444.22;5113789;28;1067;-60
2023/12/16 10:04:16;;;;;;;;;;;;;;;4.65;81.69;96441.59;5113667;28;1064;-61
2023/12/16 10:06:42;;;;;;;;;;;;;;;4.67;81.79;96425.59;5113377;28;1024;-62
2023/12/16 10:09:08;;;;;;;;;;;;;;;4.62;82.87;96433.81;5113511;28;1052;-62
2023/12/16 10:11:43;;;;;;;;;;;;;;;4.62;80.28;96440.91;5106907;28;1989;-64
2023/12/16 10:14:09;;;;;;;;;;;;;;;4.60;80.82;96440.16;5092418;28;1100;-60
2023/12/16 10:16:35;;;;;;;;;;;;;;;4.57;80.16;96443.88;5092903;28;1021;-61
2023/12/16 10:19:01;;;;;;;;;;;;;;;4.48;80.60;96447.06;5093040;28;1103;-61
2023/12/16 10:21:28;;;;;;;;;;;;;;;4.54;81.33;96445.84;5093415;28;978;-60
2023/12/16 10:23:58;;;;;;;;;;;;;;;4.57;82.03;96440.34;5093338;28;984;-60
2023/12/16 10:26:24;;;;;;;;;;;;;;;4.76;79.26;96438.28;5075333;28;1052;-60
2023/12/16 10:28:50;;;;;;;;;;;;;;;4.75;79.88;96449.81;5092926;28;1037;-61
2023/12/16 10:31:18;;;;;;;;;;;;;;;4.80;80.37;96449.53;5092838;28;2000;-61
2023/12/16 10:33:44;;;;;;;;;;;;;;;4.77;79.41;96445.28;5092870;28;1033;-61
2023/12/16 10:36:10;;;;;;;;;;;;;;;4.71;78.28;96432.41;5092824;28;1088;-61
2023/12/16 10:38:36;;;;;;;;;;;;;;;4.65;79.11;96435.44;5093215;28;1004;-61
2023/12/16 10:41:03;;;;;;;;;;;;;;;4.67;79.67;96445.00;5092903;28;1111;-60
2023/12/16 10:43:29;;;;;;;;;;;;;;;4.67;78.69;96446.81;5092731;28;1025;-61
2023/12/16 10:45:55;;;;;;;;;;;;;;;4.58;80.71;96453.50;5074874;28;1092;-60
2023/12/16 10:48:21;;;;;;;;;;;;;;;4.68;78.27;96456.44;5092911;28;1008;-61
2023/12/16 10:50:48;;;;;;;;;;;;;;;4.59;78.91;96467.59;5092607;28;1992;-60
2023/12/16 10:53:22;;;;;;;;;;;;;;;4.68;78.02;96459.94;5074727;28;1063;-60
2023/12/16 10:55:52;;;;;;;;;;;;;;;4.80;78.54;96458.34;5110684;28;1162;-61
2023/12/16 10:58:18;;;;;;;;;;;;;;;4.85;77.15;96458.91;5113294;28;988;-60
2023/12/16 11:00:46;;;;;;;;;;;;;;;4.83;78.95;96457.31;5112979;28;1040;-60
2023/12/16 11:03:21;;;;;;;;;;;;;;;5.00;77.49;96459.75;5112903;28;1012;-59
2023/12/16 11:05:50;;;;;;;;;;;;;;;4.92;77.15;96466.50;5106591;28;1071;-58
2023/12/16 11:08:16;;;;;;;;;;;;;;;4.79;77.74;96471.69;5092720;28;972;-60
2023/12/16 11:10:42;;;;;;;;;;;;;;;4.77;78.03;96477.09;5092890;28;1914;-60
2023/12/16 11:13:08;;;;;;;;;;;;;;;4.91;77.96;96460.31;5092482;28;1084;-60
2023/12/16 11:15:35;;;;;;;;;;;;;;;4.82;76.77;96466.22;5092455;28;991;-60
2023/12/16 11:18:16;;;;;;;;;;;;;;;4.87;77.41;96464.97;5092965;28;1075;-59
2023/12/16 11:20:44;;;;;;;;;;;;;;;5.09;76.29;96469.81;5096199;28;921;-61
2023/12/16 11:23:11;;;;;;;;;;;;;;;4.87;76.63;96464.97;5096149;28;1282;-62
2023/12/16 11:25:37;;;;;;;;;;;;;;;4.82;78.37;96468.88;5096268;28;1048;-62
2023/12/16 11:28:04;;;;;;;;;;;;;;;4.97;77.42;96464.41;5096107;28;984;-61
2023/12/16 11:30:32;;;;;;;;;;;;;;;4.91;74.67;96467.44;5095857;28;1906;-61
2023/12/16 11:32:59;;;;;;;;;;;;;;;4.93;76.51;96457.59;5096115;28;978;-61
2023/12/16 11:35:44;;;;;;;;;;;;;;;4.94;75.41;96457.50;5095932;28;977;-61
2023/12/16 11:38:30;;;;;;;;;;;;;;;4.74;77.06;96466.66;5095894;28;1056;-62
2023/12/16 11:40:58;;;;;;;;;;;;;;;4.72;77.06;96459.75;5095575;28;1000;-61
2023/12/16 11:43:44;;;;;;;;;;;;;;;4.58;76.59;96468.56;5096001;28;1057;-61
2023/12/16 11:46:30;;;;;;;;;;;;;;;4.61;77.23;96469.22;5095575;28;1109;-62
2023/12/16 11:48:56;;;;;;;;;;;;;;;4.66;77.04;96468.94;5096282;28;1352;-61
2023/12/16 11:51:22;;;;;;;;;;;;;;;4.65;77.46;96467.25;5095473;28;1918;-61
2023/12/16 11:53:50;;;;;;;;;;;;;;;4.80;76.75;96470.72;5096848;28;1213;-60
2023/12/16 11:56:16;;;;;;;;;;;;;;;4.82;77.13;96474.16;5115934;28;1029;-61
2023/12/16 11:58:42;;;;;;;;;;;;;;;4.87;75.63;96472.91;5115989;28;985;-61
2023/12/16 12:01:08;;;;;;;;;;;;;;;4.72;77.91;96476.50;5116116;28;974;-61
2023/12/16 12:03:34;;;;;;;;;;;;;;;4.69;77.86;96479.34;5115744;28;978;-60
2023/12/16 12:06:00;;;;;;;;;;;;;;;4.82;76.42;96482.13;5115746;28;1048;-62
2023/12/16 12:08:26;;;;;;;;;;;;;;;4.87;76.06;96480.03;5115839;28;962;-61
2023/12/16 12:10:52;;;;;;;;;;;;;;;4.93;75.64;96476.16;5116065;27;1997;-62
2023/12/16 12:13:18;;;;;;;;;;;;;;;5.03;76.43;96477.31;5136151;27;1052;-60
2023/12/16 12:15:44;;;;;;;;;;;;;;;5.00;75.64;96480.13;5117903;27;1060;-61
2023/12/16 12:18:10;;;;;;;;;;;;;;;4.94;75.18;96477.88;5136073;27;1048;-57
2023/12/16 12:20:36;;;;;;;;;;;;;;;4.83;76.62;96479.34;5135955;27;1079;-57
2023/12/16 12:23:02;;;;;;;;;;;;;;;4.78;76.63;96476.16;5136240;27;1055;-60
2023/12/16 12:25:28;;;;;;;;;;;;;;;4.78;76.50;96478.81;5135842;27;1032;-61
2023/12/16 12:27:54;;;;;;;;;;;;;;;4.75;77.57;96489.56;5135886;27;1040;-63
2023/12/16 12:30:20;;;;;;;;;;;;;;;4.88;76.16;96492.34;5135708;27;2290;-61
2023/12/16 12:32:46;;;;;;;;;;;;;;;4.84;77.19;96491.66;5136142;27;965;-61
2023/12/16 12:35:12;;;;;;;;;;;;;;;4.85;76.33;96490.72;5135701;27;1051;-61
2023/12/16 12:37:40;;;;;;;;;;;;;;;4.79;76.25;96490.25;5135677;27;1024;-61
2023/12/16 12:40:16;;;;;;;;;;;;;;;4.76;76.13;96486.00;5135928;27;1064;-61
2023/12/16 12:42:51;;;;;;;;;;;;;;;4.84;75.99;96491.66;5135923;27;1031;-62
2023/12/16 12:45:23;;;;;;;;;;;;;;;4.80;76.81;96492.81;5135611;27;1197;-61
2023/12/16 12:47:49;;;;;;;;;;;;;;;4.94;75.49;96491.97;5135501;27;1007;-62
2023/12/16 12:50:22;;;;;;;;;;;;;;;4.96;75.24;96486.56;5117452;27;1068;-62
2023/12/16 12:52:48;;;;;;;;;;;;;;;4.89;75.90;96496.69;5135534;27;977;-62
2023/12/16 12:55:14;;;;;;;;;;;;;;;4.87;74.80;96499.41;5135585;27;1209;-62
2023/12/16 12:57:40;;;;;;;;;;;;;;;4.70;74.66;96496.94;5135365;27;1014;-62
2023/12/16 13:00:08;;;;;;;;;;;;;;;4.66;75.33;96503.38;5135470;27;1008;-62
2023/12/16 13:02:34;;;;;;;;;;;;;;;4.74;76.53;96487.00;5116934;27;1103;-61
2023/12/16 13:05:00;;;;;;;;;;;;;;;4.80;74.38;96498.09;5135325;27;965;-62
2023/12/16 13:07:26;;;;;;;;;;;;;;;4.79;75.44;96509.63;5134996;27;1040;-62